Terminal Aerodrome Forecast
Issued by NWS

Home | Current Version | Previous Version | Text Only | Print | Product List | Glossary On
Versions: 1 2 3 4 5 6 7 8 9 10 11 12 13 14 15 16 17 18 19 20 21 22 23 24 25 26 27
000
FTUS41 KBUF 290900 AAA
TAFJHW
TAF AMD
KJHW 290904Z 2909/3006 21004KT P6SM SKC
     FM291400 21007KT P6SM SKC
     FM291800 20012KT P6SM SCT200
     FM292300 19010KT P6SM BKN100
     FM300200 20013G20KT 2SM -SN OVC040
     FM300500 20017G27KT 5SM -SHSN OVC035
      AMD LTD TO CLD VIS AND WIND=

USA.gov is the U.S. government's official web portal to all federal, state and local government web resources and services.